Time;durP1;ratioP1;P1;durP2;ratioP2;P2;SDS_P1;SDS_P2;PMS_P1;PMS_P2;Temp;Humidity;BMP_temperature;BMP_pressure;BME280_temperature;BME280_humidity;BME280_pressure;Samples;Min_cycle;Max_cycle;Signal;HPM_P1;HPM_P2
2022/09/03 07:55:45;;;;;;;;;;;19.00;91.70;;;;;;6213143;22;19920;-74
2022/09/03 07:58:47;;;;;;;;;;;19.00;91.20;;;;;;6193279;23;19920;-75
2022/09/03 09:42:32;;;;;;;;;;;21.70;86.90;;;;;;6092884;23;19923;-82
2022/09/03 09:45:13;;;;;;;;;;;21.80;86.20;;;;;;6105882;23;20363;-81
2022/09/03 09:51:22;;;;;;;;;;;22.00;87.40;;;;;;6066780;23;20000;-80
2022/09/03 09:54:03;;;;;;;;;;;21.80;86.50;;;;;;6010405;23;19929;-78
2022/09/03 09:56:29;;;;;;;;;;;22.10;87.20;;;;;;5986768;23;19918;-74
2022/09/03 09:59:03;;;;;;;;;;;22.10;85.70;;;;;;5986751;23;20298;-78
2022/09/03 10:01:34;;;;;;;;;;;22.40;86.20;;;;;;5986886;23;20283;-77
2022/09/03 10:04:07;;;;;;;;;;;22.30;85.00;;;;;;5986971;23;19946;-79
2022/09/03 10:09:39;;;;;;;;;;;22.60;84.70;;;;;;6043690;23;19929;-76
2022/09/03 10:12:13;;;;;;;;;;;22.50;83.90;;;;;;6043457;23;19917;-76
2022/09/03 10:14:57;;;;;;;;;;;22.40;86.80;;;;;;6043884;23;19918;-76
2022/09/03 10:17:30;;;;;;;;;;;22.60;85.90;;;;;;6042850;23;20037;-78
2022/09/03 10:22:45;;;;;;;;;;;22.70;83.90;;;;;;6048699;23;19925;-79
2022/09/03 10:25:13;;;;;;;;;;;22.60;84.20;;;;;;6109046;23;19925;-76
2022/09/03 10:27:39;;;;;;;;;;;22.60;83.30;;;;;;6147706;23;19992;-77
2022/09/03 10:30:07;;;;;;;;;;;22.60;84.40;;;;;;6219268;23;19904;-79
2022/09/03 10:32:36;;;;;;;;;;;22.70;84.10;;;;;;6193960;23;19908;-77
2022/09/03 10:35:13;;;;;;;;;;;22.90;84.00;;;;;;6166567;23;19924;-77
2022/09/03 10:37:43;;;;;;;;;;;22.80;83.30;;;;;;6190345;23;20246;-78
2022/09/03 10:49:43;;;;;;;;;;;22.90;82.40;;;;;;6201440;22;19915;-78
2022/09/03 10:52:30;;;;;;;;;;;23.00;82.70;;;;;;6193862;23;19950;-82
2022/09/03 13:56:46;;;;;;;;;;;;;;;;;;;;;
2022/09/03 13:59:58;;;;;;;;;;;;;;;;;;;;;
2022/09/03 14:03:14;;;;;;;;;;;25.70;61.30;;;;;;5900762;24;19941;-77
2022/09/03 14:05:55;;;;;;;;;;;25.80;61.70;;;;;;5958604;24;20005;-78
2022/09/03 14:12:14;;;;;;;;;;;25.80;61.60;;;;;;6011022;23;19932;-79
2022/09/03 14:33:11;;;;;;;;;;;26.10;59.40;;;;;;6245864;22;20250;-78
2022/09/03 14:36:04;;;;;;;;;;;26.00;60.20;;;;;;6220343;23;19982;-76
2022/09/03 14:38:38;;;;;;;;;;;26.20;60.00;;;;;;6220646;23;20289;-75
2022/09/03 14:41:12;;;;;;;;;;;26.50;58.40;;;;;;6195856;23;19966;-75
2022/09/03 14:44:01;;;;;;;;;;;26.00;59.50;;;;;;6195261;23;19947;-74
2022/09/03 14:46:42;;;;;;;;;;;26.10;60.60;;;;;;6246170;23;19962;-74
2022/09/03 14:49:07;;;;;;;;;;;26.10;58.00;;;;;;6195760;23;19972;-74
2022/09/03 14:51:51;;;;;;;;;;;25.70;61.30;;;;;;6195562;23;19923;-75
2022/09/03 14:54:29;;;;;;;;;;;25.40;61.00;;;;;;6220305;23;19919;-74
2022/09/03 14:57:18;;;;;;;;;;;25.40;61.00;;;;;;6195597;23;19916;-75
2022/09/03 15:09:54;;;;;;;;;;;24.90;61.30;;;;;;6099923;23;19924;-80
2022/09/03 15:12:23;;;;;;;;;;;24.90;60.90;;;;;;6076172;23;19925;-77
2022/09/03 15:15:01;;;;;;;;;;;24.80;60.40;;;;;;6100415;23;19924;-78
2022/09/03 15:17:41;;;;;;;;;;;24.70;62.00;;;;;;6099533;23;19995;-77
2022/09/03 15:20:15;;;;;;;;;;;24.70;62.50;;;;;;6191213;23;19965;-77
2022/09/03 15:22:41;;;;;;;;;;;24.60;61.50;;;;;;6220336;23;20238;-76
2022/09/03 15:25:22;;;;;;;;;;;24.70;61.80;;;;;;6219677;23;19990;-75
2022/09/03 15:27:48;;;;;;;;;;;24.60;62.00;;;;;;6219525;23;19916;-76
2022/09/03 15:30:17;;;;;;;;;;;24.50;61.40;;;;;;6220415;23;19965;-75
2022/09/03 15:32:49;;;;;;;;;;;24.50;62.90;;;;;;6194504;23;21584;-77
2022/09/03 15:35:23;;;;;;;;;;;24.40;63.70;;;;;;6194152;23;20246;-75
2022/09/03 15:38:12;;;;;;;;;;;24.30;64.70;;;;;;6194542;23;20250;-75
2022/09/03 15:40:38;;;;;;;;;;;24.20;63.70;;;;;;6151098;23;19915;-75
2022/09/03 15:43:07;;;;;;;;;;;24.00;63.10;;;;;;6194651;23;19915;-75
2022/09/03 15:45:35;;;;;;;;;;;24.00;64.00;;;;;;6194815;23;19920;-75
2022/09/03 15:48:21;;;;;;;;;;;24.10;65.10;;;;;;6194661;23;20300;-75
2022/09/03 15:50:49;;;;;;;;;;;24.00;65.10;;;;;;6194380;23;19923;-77
2022/09/03 15:53:16;;;;;;;;;;;23.90;66.60;;;;;;6220346;23;19916;-75
2022/09/03 15:55:42;;;;;;;;;;;23.90;66.80;;;;;;6194820;23;19915;-76
2022/09/03 15:58:30;;;;;;;;;;;23.90;64.70;;;;;;6194915;23;19917;-77
2022/09/03 16:01:23;;;;;;;;;;;23.80;65.20;;;;;;6195039;23;19920;-76
2022/09/03 16:03:59;;;;;;;;;;;23.70;66.20;;;;;;6241098;23;19970;-77
2022/09/03 16:06:38;;;;;;;;;;;23.60;66.20;;;;;;6195115;23;20323;-75
2022/09/03 16:09:07;;;;;;;;;;;23.60;66.70;;;;;;6195108;23;19920;-74
2022/09/03 16:11:35;;;;;;;;;;;23.60;66.20;;;;;;6195237;23;20242;-76
2022/09/03 16:14:01;;;;;;;;;;;23.60;67.20;;;;;;6195126;23;19990;-76
2022/09/03 16:16:41;;;;;;;;;;;23.50;67.70;;;;;;6219398;23;19954;-75
2022/09/03 16:19:25;;;;;;;;;;;23.40;66.70;;;;;;6219987;23;20378;-75
2022/09/03 16:21:59;;;;;;;;;;;23.40;66.80;;;;;;6195248;23;19998;-75
2022/09/03 16:24:37;;;;;;;;;;;23.40;67.50;;;;;;6219968;23;19965;-76
2022/09/03 16:27:21;;;;;;;;;;;23.30;68.50;;;;;;6194570;23;19919;-76
2022/09/03 16:29:56;;;;;;;;;;;23.30;66.60;;;;;;6195435;23;19920;-75
2022/09/03 16:32:25;;;;;;;;;;;23.20;66.30;;;;;;6219656;23;19916;-75
2022/09/03 16:35:02;;;;;;;;;;;23.20;67.70;;;;;;6194990;23;19920;-75
2022/09/03 16:37:31;;;;;;;;;;;23.10;68.80;;;;;;6220112;23;19919;-76
2022/09/03 16:40:05;;;;;;;;;;;23.00;68.70;;;;;;6194603;23;19994;-77
2022/09/03 16:42:43;;;;;;;;;;;22.90;69.30;;;;;;6194961;23;19991;-74
2022/09/03 16:45:13;;;;;;;;;;;22.90;68.40;;;;;;6196124;23;19927;-78
2022/09/03 16:47:50;;;;;;;;;;;22.90;68.50;;;;;;6195551;23;19916;-75
2022/09/03 16:50:28;;;;;;;;;;;22.80;69.70;;;;;;6221597;23;19950;-77
2022/09/03 16:53:03;;;;;;;;;;;22.70;68.90;;;;;;6196608;23;19920;-77
2022/09/03 16:55:33;;;;;;;;;;;22.70;69.10;;;;;;6196410;23;19920;-77
2022/09/03 16:58:08;;;;;;;;;;;22.60;69.70;;;;;;6221481;23;19999;-76
2022/09/03 17:00:39;;;;;;;;;;;22.60;70.10;;;;;;6208759;22;19926;-75
2022/09/03 17:03:28;;;;;;;;;;;22.50;70.60;;;;;;6248316;22;19910;-77
2022/09/03 17:06:05;;;;;;;;;;;22.50;70.60;;;;;;6274255;22;19947;-78
2022/09/03 17:08:43;;;;;;;;;;;22.40;71.00;;;;;;6248674;22;19904;-76
2022/09/03 17:11:29;;;;;;;;;;;22.30;72.50;;;;;;6223485;22;19920;-78
2022/09/03 17:14:01;;;;;;;;;;;22.20;73.40;;;;;;6222347;23;19991;-78
2022/09/03 17:16:27;;;;;;;;;;;22.10;74.90;;;;;;6220360;23;19970;-76
2022/09/03 17:19:04;;;;;;;;;;;22.00;75.40;;;;;;6195802;23;19915;-78
2022/09/03 17:21:37;;;;;;;;;;;21.90;75.30;;;;;;6195414;23;19926;-78
2022/09/03 17:24:06;;;;;;;;;;;21.80;75.80;;;;;;6195416;23;19923;-78
2022/09/03 17:26:53;;;;;;;;;;;21.70;76.10;;;;;;6195904;23;19943;-78
2022/09/03 17:29:37;;;;;;;;;;;21.60;76.30;;;;;;6198070;23;19926;-76
2022/09/03 17:32:21;;;;;;;;;;;21.40;76.50;;;;;;6198195;23;19916;-76
2022/09/03 17:34:46;;;;;;;;;;;21.20;77.10;;;;;;6224929;23;19920;-76
2022/09/03 17:37:12;;;;;;;;;;;21.20;77.70;;;;;;6223807;23;19923;-77
2022/09/03 17:40:00;;;;;;;;;;;21.00;77.70;;;;;;6196676;23;19916;-78
2022/09/03 17:42:39;;;;;;;;;;;20.90;78.50;;;;;;6196932;23;19915;-77
2022/09/03 17:45:14;;;;;;;;;;;20.80;79.00;;;;;;6222194;23;20234;-74
2022/09/03 17:47:40;;;;;;;;;;;20.70;78.90;;;;;;6196244;23;19927;-77
2022/09/03 17:50:17;;;;;;;;;;;20.60;79.20;;;;;;6196648;23;20380;-76
2022/09/03 17:53:15;;;;;;;;;;;20.50;79.90;;;;;;6197241;23;20326;-77
2022/09/03 17:55:43;;;;;;;;;;;20.50;80.90;;;;;;6189414;23;19951;-78
2022/09/03 17:58:18;;;;;;;;;;;20.30;81.60;;;;;;6221387;23;19919;-77
2022/09/03 18:00:54;;;;;;;;;;;20.20;81.30;;;;;;6195843;23;19915;-77
2022/09/03 18:03:38;;;;;;;;;;;20.10;83.20;;;;;;6220960;23;19920;-77
2022/09/03 18:06:06;;;;;;;;;;;19.90;84.50;;;;;;6196217;23;19922;-76
2022/09/03 18:08:35;;;;;;;;;;;19.80;84.90;;;;;;6195833;23;20041;-78
2022/09/03 18:11:07;;;;;;;;;;;19.60;86.10;;;;;;6196255;23;19916;-78
2022/09/03 18:13:46;;;;;;;;;;;19.50;86.40;;;;;;6196261;23;19916;-77
2022/09/03 18:16:20;;;;;;;;;;;19.30;88.30;;;;;;6221032;23;20235;-77
2022/09/03 18:18:50;;;;;;;;;;;19.20;89.50;;;;;;6196874;23;19947;-77
2022/09/03 20:11:20;;;;;;;;;;;16.10;99.90;;;;;;6219620;23;19919;-74
2022/09/03 20:16:48;;;;;;;;;;;16.10;99.90;;;;;;6219583;23;19927;-77
2022/09/03 20:19:26;;;;;;;;;;;16.10;99.90;;;;;;6194022;23;19926;-76
2022/09/03 20:22:28;;;;;;;;;;;16.10;99.90;;;;;;6193921;23;19927;-77
2022/09/03 20:25:25;;;;;;;;;;;16.00;99.90;;;;;;6194241;23;19992;-77
2022/09/03 20:28:17;;;;;;;;;;;15.90;99.90;;;;;;6193933;23;20245;-76
2022/09/03 20:31:15;;;;;;;;;;;15.70;99.90;;;;;;6218506;23;20250;-76
2022/09/03 20:34:39;;;;;;;;;;;15.80;99.90;;;;;;6210597;23;19966;-75
2022/09/03 20:37:08;;;;;;;;;;;15.80;99.90;;;;;;6189703;23;19922;-76
2022/09/03 20:39:43;;;;;;;;;;;15.70;99.90;;;;;;6189337;23;19943;-76
2022/09/03 20:42:36;;;;;;;;;;;15.70;99.90;;;;;;6188083;23;19927;-78
2022/09/03 20:45:17;;;;;;;;;;;15.70;99.90;;;;;;6143969;23;19921;-75
2022/09/03 20:51:14;;;;;;;;;;;15.70;99.90;;;;;;6171227;23;19916;-75
2022/09/03 20:54:00;;;;;;;;;;;15.70;99.90;;;;;;6189336;23;19919;-75
2022/09/03 20:56:32;;;;;;;;;;;15.70;99.90;;;;;;6188940;23;19916;-73
2022/09/03 20:58:57;;;;;;;;;;;15.70;99.90;;;;;;6189031;23;20370;-77
2022/09/03 21:01:42;;;;;;;;;;;15.70;99.90;;;;;;6214553;23;19919;-84
2022/09/03 21:07:48;;;;;;;;;;;15.80;99.90;;;;;;6217414;23;19918;-75
2022/09/03 21:10:47;;;;;;;;;;;15.80;99.90;;;;;;6191242;23;19931;-75
2022/09/03 21:13:32;;;;;;;;;;;15.80;99.90;;;;;;6087331;23;19926;-74
2022/09/03 21:16:16;;;;;;;;;;;15.90;99.90;;;;;;6215734;23;19947;-75
2022/09/03 21:19:01;;;;;;;;;;;16.00;99.90;;;;;;6215902;23;19916;-75
2022/09/03 21:21:33;;;;;;;;;;;16.10;99.90;;;;;;6216328;23;19987;-77
2022/09/03 21:24:11;;;;;;;;;;;16.10;99.90;;;;;;6191056;23;19916;-75
2022/09/03 21:26:44;;;;;;;;;;;16.20;99.90;;;;;;6216089;23;19922;-77
2022/09/03 21:29:28;;;;;;;;;;;16.20;99.90;;;;;;6216485;23;19928;-77
2022/09/03 21:32:15;;;;;;;;;;;16.30;99.90;;;;;;6191719;23;19916;-77
2022/09/03 21:34:45;;;;;;;;;;;16.30;99.90;;;;;;6191354;23;19916;-77
2022/09/03 21:37:11;;;;;;;;;;;16.30;99.90;;;;;;6191296;23;19927;-76
2022/09/03 21:39:53;;;;;;;;;;;16.40;99.90;;;;;;6190804;23;20331;-75
2022/09/03 21:42:35;;;;;;;;;;;16.40;99.90;;;;;;6190951;23;19942;-77
2022/09/03 21:45:18;;;;;;;;;;;16.50;99.90;;;;;;6191386;23;20346;-77
2022/09/03 21:47:51;;;;;;;;;;;16.50;99.90;;;;;;6191251;23;19991;-77
2022/09/03 21:50:20;;;;;;;;;;;16.60;99.90;;;;;;6216127;23;19997;-75
2022/09/03 21:52:50;;;;;;;;;;;16.60;99.90;;;;;;6190820;23;20342;-77
2022/09/03 21:55:30;;;;;;;;;;;16.70;99.90;;;;;;6190936;23;19977;-77
2022/09/03 21:58:16;;;;;;;;;;;16.80;99.90;;;;;;6215989;23;19947;-76
2022/09/03 22:00:42;;;;;;;;;;;16.90;99.70;;;;;;6170341;23;19916;-77
2022/09/03 22:03:09;;;;;;;;;;;17.10;99.10;;;;;;6191573;23;19923;-76
2022/09/03 22:05:41;;;;;;;;;;;17.10;98.70;;;;;;6216112;23;19916;-76
2022/09/03 22:08:18;;;;;;;;;;;17.20;98.60;;;;;;6215905;23;19924;-76
2022/09/03 22:10:56;;;;;;;;;;;17.30;98.10;;;;;;6215651;23;19927;-76
2022/09/03 22:13:27;;;;;;;;;;;17.30;97.90;;;;;;6190525;23;20319;-76
2022/09/03 22:15:56;;;;;;;;;;;17.30;97.80;;;;;;6190651;23;19995;-76
2022/09/03 22:18:27;;;;;;;;;;;17.30;97.40;;;;;;6190834;23;19920;-77
2022/09/03 22:20:58;;;;;;;;;;;17.30;97.40;;;;;;6216002;23;19991;-77
2022/09/03 22:23:44;;;;;;;;;;;17.40;97.00;;;;;;6191077;23;19920;-78
2022/09/03 22:26:23;;;;;;;;;;;17.40;96.80;;;;;;6190258;23;19923;-74
2022/09/03 22:29:10;;;;;;;;;;;17.50;96.50;;;;;;6190834;23;19920;-76
2022/09/03 22:31:42;;;;;;;;;;;17.60;96.10;;;;;;6215751;23;19927;-77
2022/09/03 22:34:26;;;;;;;;;;;17.50;96.00;;;;;;6190894;23;19962;-78
2022/09/03 22:36:54;;;;;;;;;;;17.70;95.60;;;;;;6190799;23;19920;-77
2022/09/03 22:39:20;;;;;;;;;;;17.70;95.50;;;;;;6191029;23;19920;-76
2022/09/03 22:41:52;;;;;;;;;;;17.70;95.40;;;;;;6190461;23;19958;-78
2022/09/03 22:44:38;;;;;;;;;;;17.70;95.20;;;;;;6215986;23;19916;-76
2022/09/03 22:47:17;;;;;;;;;;;17.70;95.10;;;;;;6191084;23;19982;-76
2022/09/03 22:50:04;;;;;;;;;;;17.60;95.30;;;;;;6215435;23;20002;-77
2022/09/03 22:52:32;;;;;;;;;;;17.60;95.10;;;;;;6190916;23;20103;-75
2022/09/03 22:55:04;;;;;;;;;;;17.60;94.80;;;;;;6215655;23;19920;-78
2022/09/03 22:57:31;;;;;;;;;;;17.70;94.50;;;;;;6190665;23;19924;-76
2022/09/03 23:00:00;;;;;;;;;;;17.70;94.50;;;;;;6190382;23;19966;-76
2022/09/03 23:02:27;;;;;;;;;;;17.70;94.30;;;;;;6215686;23;20349;-76
2022/09/03 23:05:02;;;;;;;;;;;17.70;94.20;;;;;;6190656;23;19922;-76
2022/09/03 23:07:52;;;;;;;;;;;17.60;94.30;;;;;;6215233;23;19927;-76
2022/09/03 23:10:23;;;;;;;;;;;17.60;94.10;;;;;;6200748;23;19919;-76
2022/09/03 23:13:00;;;;;;;;;;;17.70;94.00;;;;;;6215297;23;20004;-77
2022/09/03 23:15:29;;;;;;;;;;;17.60;94.10;;;;;;6217264;23;19920;-77
2022/09/03 23:18:07;;;;;;;;;;;17.50;94.00;;;;;;6215299;23;20349;-78
2022/09/03 23:20:35;;;;;;;;;;;17.60;93.90;;;;;;6215699;23;19927;-75
2022/09/03 23:23:11;;;;;;;;;;;17.60;93.80;;;;;;6190439;23;19920;-77
2022/09/03 23:25:46;;;;;;;;;;;17.50;93.90;;;;;;6190398;23;19958;-77
2022/09/03 23:28:15;;;;;;;;;;;17.50;94.00;;;;;;6190533;23;19916;-76
2022/09/03 23:30:41;;;;;;;;;;;17.50;93.90;;;;;;6215192;23;19991;-78
2022/09/03 23:33:07;;;;;;;;;;;17.40;94.00;;;;;;6226167;23;20005;-78
2022/09/03 23:35:59;;;;;;;;;;;17.40;94.00;;;;;;6220337;23;19990;-76
2022/09/03 23:38:44;;;;;;;;;;;17.40;94.00;;;;;;6212783;23;19931;-77
2022/09/03 23:41:16;;;;;;;;;;;17.40;94.00;;;;;;6220302;23;19926;-77
2022/09/03 23:43:41;;;;;;;;;;;17.30;94.00;;;;;;6220780;23;19919;-75
2022/09/03 23:46:29;;;;;;;;;;;17.30;94.00;;;;;;6195313;23;19919;-76
2022/09/03 23:49:15;;;;;;;;;;;17.20;94.10;;;;;;6199701;23;19927;-76
2022/09/03 23:51:59;;;;;;;;;;;17.30;93.90;;;;;;6249083;22;19919;-77
2022/09/03 23:54:36;;;;;;;;;;;17.30;93.70;;;;;;6224075;22;19927;-77
2022/09/03 23:57:11;;;;;;;;;;;17.30;93.60;;;;;;6223890;22;19904;-76
2022/09/03 23:59:38;;;;;;;;;;;17.20;93.80;;;;;;6223906;22;19963;-79
